Time;durP1;ratioP1;P1;durP2;ratioP2;P2;SDS_P1;SDS_P2;PMS_P1;PMS_P2;Temp;Humidity;BMP_temperature;BMP_pressure;BME280_temperature;BME280_humidity;BME280_pressure;Samples;Min_cycle;Max_cycle;Signal;HPM_P1;HPM_P2
2023/05/29 00:04:36;;;;;;;;;;;20.80;53.50;;;;;;10323572;28;826;-69
2023/05/29 00:09:31;;;;;;;;;;;20.80;53.50;;;;;;10324696;28;896;-69
2023/05/29 00:14:27;;;;;;;;;;;20.80;53.50;;;;;;10331179;28;894;-69
2023/05/29 00:19:24;;;;;;;;;;;20.80;53.60;;;;;;10331093;28;1951;-69
2023/05/29 00:24:20;;;;;;;;;;;20.70;53.50;;;;;;10330936;28;902;-69
2023/05/29 00:29:16;;;;;;;;;;;20.70;53.50;;;;;;10331043;28;782;-69
2023/05/29 00:34:11;;;;;;;;;;;20.70;53.40;;;;;;10330532;28;1090;-69
2023/05/29 00:39:07;;;;;;;;;;;20.70;53.50;;;;;;10330373;28;1915;-69
2023/05/29 00:44:02;;;;;;;;;;;20.70;53.50;;;;;;10330211;28;774;-69
2023/05/29 00:48:58;;;;;;;;;;;20.70;53.50;;;;;;10329946;28;958;-69
2023/05/29 00:53:53;;;;;;;;;;;20.70;53.60;;;;;;10329900;28;821;-69
2023/05/29 00:58:48;;;;;;;;;;;20.70;53.50;;;;;;10330184;28;1926;-69
2023/05/29 01:03:45;;;;;;;;;;;20.70;53.60;;;;;;10329148;28;1019;-69
2023/05/29 01:08:40;;;;;;;;;;;20.70;53.50;;;;;;10328796;28;1708;-69
2023/05/29 01:13:36;;;;;;;;;;;20.70;53.50;;;;;;10328490;28;951;-69
2023/05/29 01:18:32;;;;;;;;;;;20.70;53.50;;;;;;10329408;28;834;-70
2023/05/29 01:23:27;;;;;;;;;;;20.70;53.50;;;;;;10328104;28;1910;-69
2023/05/29 01:28:22;;;;;;;;;;;20.70;53.50;;;;;;10328469;28;855;-69
2023/05/29 01:33:18;;;;;;;;;;;20.70;53.50;;;;;;10328226;28;940;-69
2023/05/29 01:38:13;;;;;;;;;;;20.60;53.50;;;;;;10328405;28;1471;-69
2023/05/29 01:43:08;;;;;;;;;;;20.60;53.50;;;;;;10327653;28;1917;-69
2023/05/29 01:48:04;;;;;;;;;;;20.60;53.50;;;;;;10327075;28;854;-69
2023/05/29 01:52:59;;;;;;;;;;;20.60;53.50;;;;;;10327365;28;986;-69
2023/05/29 01:57:56;;;;;;;;;;;20.60;53.50;;;;;;10327273;28;1100;-69
2023/05/29 02:02:51;;;;;;;;;;;20.60;53.50;;;;;;10327535;28;1914;-69
2023/05/29 02:07:47;;;;;;;;;;;20.60;53.50;;;;;;10326898;28;790;-69
2023/05/29 02:12:42;;;;;;;;;;;20.60;53.50;;;;;;10326008;28;1007;-69
2023/05/29 02:17:37;;;;;;;;;;;20.60;53.50;;;;;;10326511;28;828;-69
2023/05/29 02:22:33;;;;;;;;;;;20.60;53.50;;;;;;10326975;28;1901;-69
2023/05/29 02:27:28;;;;;;;;;;;20.60;53.60;;;;;;10326455;28;867;-69
2023/05/29 02:32:23;;;;;;;;;;;20.70;53.50;;;;;;10325902;28;961;-69
2023/05/29 02:37:19;;;;;;;;;;;20.60;53.50;;;;;;10327034;28;1285;-69
2023/05/29 02:42:15;;;;;;;;;;;20.60;53.40;;;;;;10325818;28;1902;-69
2023/05/29 02:47:10;;;;;;;;;;;20.60;53.50;;;;;;10326949;28;770;-69
2023/05/29 02:52:05;;;;;;;;;;;20.60;53.50;;;;;;10325790;28;832;-69
2023/05/29 02:57:02;;;;;;;;;;;20.60;53.50;;;;;;10324867;28;905;-69
2023/05/29 03:01:57;;;;;;;;;;;20.60;53.40;;;;;;10325992;28;1963;-69
2023/05/29 03:06:54;;;;;;;;;;;20.60;53.40;;;;;;10325351;28;946;-69
2023/05/29 03:11:50;;;;;;;;;;;20.60;53.50;;;;;;10325246;28;861;-69
2023/05/29 03:16:45;;;;;;;;;;;20.60;53.40;;;;;;10325703;28;801;-69
2023/05/29 03:21:41;;;;;;;;;;;20.60;53.40;;;;;;10325612;28;1962;-69
2023/05/29 03:26:36;;;;;;;;;;;20.60;53.40;;;;;;10324951;28;934;-69
2023/05/29 03:31:32;;;;;;;;;;;20.60;53.40;;;;;;10325825;28;828;-69
2023/05/29 03:36:28;;;;;;;;;;;20.60;53.40;;;;;;10325074;28;1355;-69
2023/05/29 03:41:23;;;;;;;;;;;20.60;53.40;;;;;;10324533;28;1978;-69
2023/05/29 03:46:19;;;;;;;;;;;20.60;53.30;;;;;;10327476;28;854;-69
2023/05/29 03:51:14;;;;;;;;;;;20.60;53.30;;;;;;10332180;28;864;-69
2023/05/29 03:56:09;;;;;;;;;;;20.60;53.30;;;;;;10332330;28;1613;-69
2023/05/29 04:01:05;;;;;;;;;;;20.60;53.30;;;;;;10331768;28;1902;-68
2023/05/29 04:06:00;;;;;;;;;;;20.60;53.30;;;;;;10331661;28;927;-68
2023/05/29 04:10:55;;;;;;;;;;;20.60;53.30;;;;;;10330895;28;1370;-69
2023/05/29 04:15:52;;;;;;;;;;;20.60;53.20;;;;;;10331961;28;816;-68
2023/05/29 04:20:47;;;;;;;;;;;20.60;53.30;;;;;;10330939;28;1969;-69
2023/05/29 04:25:43;;;;;;;;;;;20.60;53.30;;;;;;10331305;28;989;-69
2023/05/29 04:30:39;;;;;;;;;;;20.60;53.40;;;;;;10331203;28;759;-68
2023/05/29 04:35:35;;;;;;;;;;;20.60;53.30;;;;;;10330288;28;1152;-69
2023/05/29 04:40:31;;;;;;;;;;;20.60;53.30;;;;;;10330054;28;1968;-69
2023/05/29 04:45:27;;;;;;;;;;;20.60;53.30;;;;;;10329985;28;1009;-68
2023/05/29 04:50:23;;;;;;;;;;;20.70;53.40;;;;;;10327830;28;1031;-69
2023/05/29 04:55:18;;;;;;;;;;;20.70;53.40;;;;;;10329284;28;809;-69
2023/05/29 05:00:14;;;;;;;;;;;20.70;53.30;;;;;;10328734;28;1977;-69
2023/05/29 05:05:09;;;;;;;;;;;20.70;53.30;;;;;;10328672;28;926;-69
2023/05/29 05:10:06;;;;;;;;;;;20.70;53.30;;;;;;10328478;28;863;-69
2023/05/29 05:15:01;;;;;;;;;;;20.70;53.40;;;;;;10328685;28;878;-69
2023/05/29 05:19:56;;;;;;;;;;;20.70;53.40;;;;;;10328075;28;1957;-69
2023/05/29 05:24:54;;;;;;;;;;;20.70;53.40;;;;;;10328322;28;885;-69
2023/05/29 05:29:49;;;;;;;;;;;20.70;53.30;;;;;;10328405;28;846;-68
2023/05/29 05:34:45;;;;;;;;;;;20.70;53.40;;;;;;10328236;28;1207;-68
2023/05/29 05:39:40;;;;;;;;;;;20.70;53.40;;;;;;10328346;28;1917;-68
2023/05/29 05:44:35;;;;;;;;;;;20.70;53.40;;;;;;10327535;28;916;-69
2023/05/29 05:49:31;;;;;;;;;;;20.70;53.40;;;;;;10327981;28;763;-69
2023/05/29 05:54:26;;;;;;;;;;;20.70;53.50;;;;;;10327708;28;845;-69
2023/05/29 05:59:21;;;;;;;;;;;20.70;54.10;;;;;;10327492;28;1911;-69
2023/05/29 06:04:17;;;;;;;;;;;20.70;53.50;;;;;;10326785;28;750;-68
2023/05/29 06:09:12;;;;;;;;;;;20.70;53.40;;;;;;10326050;28;840;-68
2023/05/29 06:14:07;;;;;;;;;;;20.70;53.40;;;;;;10326387;28;912;-68
2023/05/29 06:19:04;;;;;;;;;;;20.70;53.50;;;;;;10326809;28;1970;-68
2023/05/29 06:23:59;;;;;;;;;;;20.70;53.50;;;;;;10326696;28;839;-67
2023/05/29 06:28:55;;;;;;;;;;;20.70;53.60;;;;;;10326003;28;825;-69
2023/05/29 06:33:50;;;;;;;;;;;20.70;53.60;;;;;;10325758;28;1294;-69
2023/05/29 06:38:46;;;;;;;;;;;20.70;53.50;;;;;;10326054;28;774;-68
2023/05/29 06:43:41;;;;;;;;;;;20.70;53.60;;;;;;10325548;28;1906;-68
2023/05/29 06:48:36;;;;;;;;;;;20.80;53.60;;;;;;10325532;28;867;-67
2023/05/29 06:53:32;;;;;;;;;;;20.80;53.70;;;;;;10325382;28;830;-68
2023/05/29 06:58:27;;;;;;;;;;;20.80;53.70;;;;;;10326211;28;880;-68
2023/05/29 07:03:22;;;;;;;;;;;20.80;53.70;;;;;;10325068;28;1982;-68
2023/05/29 07:08:18;;;;;;;;;;;20.80;53.70;;;;;;10325898;28;833;-68
2023/05/29 07:13:13;;;;;;;;;;;20.70;53.70;;;;;;10324980;28;776;-68
2023/05/29 07:18:08;;;;;;;;;;;20.80;53.80;;;;;;10325491;28;864;-68
2023/05/29 07:23:04;;;;;;;;;;;20.80;53.80;;;;;;10332471;28;1911;-68
2023/05/29 07:27:59;;;;;;;;;;;20.80;53.80;;;;;;10332931;28;843;-68
2023/05/29 07:32:55;;;;;;;;;;;20.70;53.70;;;;;;10333491;28;870;-69
2023/05/29 07:37:52;;;;;;;;;;;20.80;54.40;;;;;;10332419;28;1334;-69
2023/05/29 07:42:47;;;;;;;;;;;20.80;53.90;;;;;;10332785;28;1918;-70
2023/05/29 07:47:42;;;;;;;;;;;20.70;53.80;;;;;;10332201;28;945;-69
2023/05/29 07:52:38;;;;;;;;;;;20.80;53.80;;;;;;10333206;28;881;-69
2023/05/29 07:57:33;;;;;;;;;;;20.80;53.70;;;;;;10331432;28;1006;-69
2023/05/29 08:02:28;;;;;;;;;;;20.80;53.70;;;;;;10331552;28;1901;-69
2023/05/29 08:07:24;;;;;;;;;;;20.80;53.70;;;;;;10330613;28;1003;-69
2023/05/29 08:12:20;;;;;;;;;;;20.80;53.70;;;;;;10331253;28;767;-68
2023/05/29 08:17:15;;;;;;;;;;;20.80;53.70;;;;;;10331591;28;926;-69
2023/05/29 08:22:10;;;;;;;;;;;20.80;53.70;;;;;;10330971;28;1898;-69
2023/05/29 08:27:06;;;;;;;;;;;20.80;53.80;;;;;;10331003;28;896;-72
2023/05/29 08:32:01;;;;;;;;;;;20.80;53.80;;;;;;10330713;28;915;-69
2023/05/29 08:36:57;;;;;;;;;;;20.80;53.80;;;;;;10330781;28;1406;-69
2023/05/29 08:41:52;;;;;;;;;;;20.80;53.90;;;;;;10330861;28;1984;-69
2023/05/29 08:46:47;;;;;;;;;;;20.80;53.90;;;;;;10329693;28;920;-68
2023/05/29 08:51:43;;;;;;;;;;;20.80;53.80;;;;;;10329573;28;924;-69
2023/05/29 08:56:38;;;;;;;;;;;20.80;53.90;;;;;;10329825;28;871;-69
2023/05/29 09:01:34;;;;;;;;;;;20.80;53.80;;;;;;10329608;28;1898;-69
2023/05/29 09:06:30;;;;;;;;;;;20.80;53.80;;;;;;10330071;28;1660;-71
2023/05/29 09:11:26;;;;;;;;;;;20.80;53.80;;;;;;10328998;28;1180;-71
2023/05/29 09:16:22;;;;;;;;;;;20.80;53.80;;;;;;10328378;28;851;-71
2023/05/29 09:21:17;;;;;;;;;;;20.80;53.90;;;;;;10329113;28;1893;-71
2023/05/29 09:26:12;;;;;;;;;;;20.70;53.80;;;;;;10329335;28;872;-68
2023/05/29 09:31:09;;;;;;;;;;;20.70;53.90;;;;;;10328441;28;740;-69
2023/05/29 09:36:04;;;;;;;;;;;20.70;53.80;;;;;;10328338;28;1574;-68
2023/05/29 09:41:00;;;;;;;;;;;20.70;53.70;;;;;;10327950;28;1980;-68
2023/05/29 09:45:56;;;;;;;;;;;20.80;53.80;;;;;;10327472;28;1016;-68
2023/05/29 09:50:51;;;;;;;;;;;20.70;53.80;;;;;;10327860;28;853;-68
2023/05/29 09:55:47;;;;;;;;;;;20.70;53.80;;;;;;10327433;28;797;-67
2023/05/29 10:00:43;;;;;;;;;;;20.70;53.80;;;;;;10327537;28;1973;-68
2023/05/29 10:05:38;;;;;;;;;;;20.70;53.80;;;;;;10327722;28;755;-69
2023/05/29 10:10:34;;;;;;;;;;;20.60;53.70;;;;;;10326266;28;862;-68
2023/05/29 10:15:30;;;;;;;;;;;20.60;53.70;;;;;;10326112;28;910;-68
2023/05/29 10:20:25;;;;;;;;;;;20.60;53.60;;;;;;10326518;28;1969;-67
2023/05/29 10:25:21;;;;;;;;;;;20.60;53.50;;;;;;10327624;28;857;-67
2023/05/29 10:30:16;;;;;;;;;;;20.60;53.50;;;;;;10326275;28;847;-68
2023/05/29 10:35:12;;;;;;;;;;;20.60;53.50;;;;;;10325861;28;1129;-68
2023/05/29 10:40:11;;;;;;;;;;;20.60;53.50;;;;;;10325875;28;1918;-68
2023/05/29 10:45:07;;;;;;;;;;;20.60;53.50;;;;;;10325775;28;878;-68
2023/05/29 10:50:02;;;;;;;;;;;20.60;53.50;;;;;;10326402;28;787;-68
2023/05/29 10:54:57;;;;;;;;;;;20.60;53.50;;;;;;10326008;28;849;-68
2023/05/29 10:59:53;;;;;;;;;;;20.60;54.10;;;;;;10325596;28;1969;-69
2023/05/29 11:04:48;;;;;;;;;;;20.60;53.50;;;;;;10325630;28;991;-68
2023/05/29 11:09:45;;;;;;;;;;;20.70;53.60;;;;;;10326164;28;966;-69
2023/05/29 11:14:41;;;;;;;;;;;20.60;53.60;;;;;;10325202;28;913;-68
2023/05/29 11:19:36;;;;;;;;;;;20.60;53.60;;;;;;10325903;28;1959;-68
2023/05/29 11:24:31;;;;;;;;;;;20.60;53.60;;;;;;10325085;28;846;-68
2023/05/29 11:29:27;;;;;;;;;;;20.70;53.70;;;;;;10325545;28;826;-68
2023/05/29 11:34:22;;;;;;;;;;;20.70;53.70;;;;;;10324012;28;1512;-68
2023/05/29 11:39:17;;;;;;;;;;;20.60;53.70;;;;;;10324726;28;1906;-69
2023/05/29 11:44:13;;;;;;;;;;;20.70;53.70;;;;;;10325461;28;881;-68
2023/05/29 11:49:08;;;;;;;;;;;20.60;53.70;;;;;;10325192;28;808;-67
2023/05/29 11:54:04;;;;;;;;;;;20.60;53.70;;;;;;10324500;28;854;-68
2023/05/29 11:58:59;;;;;;;;;;;20.60;53.70;;;;;;10325289;28;1627;-67
2023/05/29 12:03:55;;;;;;;;;;;20.70;53.70;;;;;;10323933;28;1898;-67
2023/05/29 12:08:50;;;;;;;;;;;20.70;53.60;;;;;;10329918;28;813;-67
2023/05/29 12:13:45;;;;;;;;;;;20.70;53.60;;;;;;10331448;28;959;-67
2023/05/29 12:18:41;;;;;;;;;;;20.70;53.70;;;;;;10331911;28;861;-68
2023/05/29 12:23:38;;;;;;;;;;;20.70;53.60;;;;;;10331168;28;1910;-67
2023/05/29 12:28:34;;;;;;;;;;;20.70;53.50;;;;;;10330974;28;856;-68
2023/05/29 12:33:29;;;;;;;;;;;20.70;53.70;;;;;;10331317;28;828;-68
2023/05/29 12:38:27;;;;;;;;;;;20.70;53.70;;;;;;10331842;28;1118;-68
2023/05/29 12:43:22;;;;;;;;;;;20.70;53.80;;;;;;10330339;28;1985;-68
2023/05/29 12:48:21;;;;;;;;;;;20.70;53.90;;;;;;10331078;28;932;-67
2023/05/29 12:53:16;;;;;;;;;;;20.70;53.90;;;;;;10330036;28;848;-67
2023/05/29 12:58:12;;;;;;;;;;;20.70;53.90;;;;;;10330476;28;813;-67
2023/05/29 13:03:07;;;;;;;;;;;20.80;53.90;;;;;;10329547;28;1905;-67
2023/05/29 13:08:04;;;;;;;;;;;20.80;53.80;;;;;;10330147;28;774;-69
2023/05/29 13:13:00;;;;;;;;;;;20.80;53.60;;;;;;10329526;28;1566;-68
2023/05/29 13:17:55;;;;;;;;;;;20.80;53.40;;;;;;10329527;28;921;-69
2023/05/29 13:22:51;;;;;;;;;;;20.80;53.40;;;;;;10328803;28;1910;-69
2023/05/29 13:27:46;;;;;;;;;;;20.80;53.30;;;;;;10329542;28;864;-66
2023/05/29 13:32:41;;;;;;;;;;;20.80;53.10;;;;;;10328537;28;751;-66
2023/05/29 13:37:37;;;;;;;;;;;20.80;53.00;;;;;;10328104;28;1322;-67
2023/05/29 13:42:32;;;;;;;;;;;20.90;52.90;;;;;;10328063;28;1918;-69
2023/05/29 13:47:31;;;;;;;;;;;20.90;52.80;;;;;;10328169;28;785;-69
2023/05/29 13:52:26;;;;;;;;;;;20.90;52.70;;;;;;10327626;28;1133;-69
2023/05/29 13:57:21;;;;;;;;;;;21.00;52.60;;;;;;10328339;28;770;-69
2023/05/29 14:02:17;;;;;;;;;;;21.00;52.50;;;;;;10327178;28;1894;-69
2023/05/29 14:07:12;;;;;;;;;;;21.00;52.40;;;;;;10327693;28;1022;-69
2023/05/29 14:12:08;;;;;;;;;;;21.00;52.30;;;;;;10327739;28;843;-69
2023/05/29 14:17:04;;;;;;;;;;;21.00;52.00;;;;;;10326734;28;844;-69
2023/05/29 14:22:00;;;;;;;;;;;21.10;52.00;;;;;;10327127;28;1945;-69
2023/05/29 14:26:56;;;;;;;;;;;21.10;51.80;;;;;;10326375;28;869;-69
2023/05/29 14:31:51;;;;;;;;;;;21.10;51.70;;;;;;10325742;28;940;-69
2023/05/29 14:36:46;;;;;;;;;;;21.20;51.70;;;;;;10326685;28;1396;-69
2023/05/29 14:41:42;;;;;;;;;;;21.20;51.60;;;;;;10326512;28;1914;-69
2023/05/29 14:46:37;;;;;;;;;;;21.20;51.50;;;;;;10326120;28;784;-69
2023/05/29 14:51:33;;;;;;;;;;;21.20;51.50;;;;;;10325767;28;934;-69
2023/05/29 14:56:28;;;;;;;;;;;21.30;51.40;;;;;;10326229;28;849;-69
2023/05/29 15:01:23;;;;;;;;;;;21.30;51.30;;;;;;10326081;28;1960;-68
2023/05/29 15:06:19;;;;;;;;;;;21.40;51.30;;;;;;10325457;28;976;-68
2023/05/29 15:11:15;;;;;;;;;;;21.40;51.20;;;;;;10324964;28;909;-68
2023/05/29 15:16:10;;;;;;;;;;;21.50;51.40;;;;;;10324550;28;969;-68
2023/05/29 15:21:06;;;;;;;;;;;21.60;51.50;;;;;;10325083;28;1906;-67
2023/05/29 15:26:02;;;;;;;;;;;21.60;51.70;;;;;;10325152;28;761;-68
2023/05/29 15:30:57;;;;;;;;;;;21.60;51.80;;;;;;10325713;28;945;-68
2023/05/29 15:35:53;;;;;;;;;;;21.70;52.50;;;;;;10325665;28;1354;-69
2023/05/29 15:40:50;;;;;;;;;;;21.70;51.90;;;;;;10325206;28;1906;-68
2023/05/29 15:45:46;;;;;;;;;;;21.70;51.90;;;;;;10333296;28;834;-68
2023/05/29 15:50:41;;;;;;;;;;;21.80;52.00;;;;;;10333311;28;917;-69
2023/05/29 15:55:37;;;;;;;;;;;21.80;52.10;;;;;;10332165;28;957;-68
2023/05/29 16:00:34;;;;;;;;;;;21.80;52.10;;;;;;10332025;28;1971;-68
2023/05/29 16:05:29;;;;;;;;;;;21.70;52.10;;;;;;10332471;28;806;-68
2023/05/29 16:10:25;;;;;;;;;;;21.70;52.10;;;;;;10331666;28;851;-68
2023/05/29 16:15:20;;;;;;;;;;;21.70;52.20;;;;;;10330869;28;1130;-68
2023/05/29 16:20:16;;;;;;;;;;;21.70;52.10;;;;;;10331180;28;1902;-68
2023/05/29 16:25:11;;;;;;;;;;;21.80;52.30;;;;;;10331825;28;827;-68
2023/05/29 16:30:06;;;;;;;;;;;21.80;52.20;;;;;;10330991;28;759;-68
2023/05/29 16:35:02;;;;;;;;;;;21.80;52.20;;;;;;10330538;28;1414;-68
2023/05/29 16:39:57;;;;;;;;;;;21.80;52.10;;;;;;10330563;28;1971;-68
2023/05/29 16:44:53;;;;;;;;;;;21.80;52.10;;;;;;10330433;28;846;-68
2023/05/29 16:49:49;;;;;;;;;;;21.80;52.80;;;;;;10330293;28;872;-69
2023/05/29 16:54:44;;;;;;;;;;;21.80;52.30;;;;;;10328927;28;945;-68
2023/05/29 16:59:40;;;;;;;;;;;21.70;52.30;;;;;;10329814;28;1902;-68
2023/05/29 17:04:35;;;;;;;;;;;21.70;52.50;;;;;;10329874;28;844;-69
2023/05/29 17:09:31;;;;;;;;;;;21.60;52.60;;;;;;10330120;28;933;-68
2023/05/29 17:14:26;;;;;;;;;;;21.50;52.90;;;;;;10329945;28;925;-68
2023/05/29 17:19:22;;;;;;;;;;;21.60;52.70;;;;;;10328471;28;1957;-67
2023/05/29 17:24:17;;;;;;;;;;;21.50;52.60;;;;;;10328941;28;909;-67
2023/05/29 17:29:15;;;;;;;;;;;21.50;52.70;;;;;;10329553;28;876;-68
2023/05/29 17:34:10;;;;;;;;;;;21.50;52.70;;;;;;10328421;28;1107;-68
2023/05/29 17:39:06;;;;;;;;;;;21.50;52.70;;;;;;10328296;28;872;-69
2023/05/29 17:44:01;;;;;;;;;;;21.50;52.70;;;;;;10328050;28;1911;-69
2023/05/29 17:48:57;;;;;;;;;;;21.50;52.80;;;;;;10327873;28;956;-69
2023/05/29 17:53:52;;;;;;;;;;;21.50;52.70;;;;;;10328307;28;948;-69
2023/05/29 17:58:49;;;;;;;;;;;21.50;52.60;;;;;;10327510;28;916;-68
2023/05/29 18:03:44;;;;;;;;;;;21.50;52.70;;;;;;10326874;28;1906;-68
2023/05/29 18:08:39;;;;;;;;;;;21.50;52.60;;;;;;10327395;28;830;-68
2023/05/29 18:13:35;;;;;;;;;;;21.50;52.50;;;;;;10327498;28;738;-68
2023/05/29 18:18:31;;;;;;;;;;;21.60;52.50;;;;;;10326153;28;847;-68
2023/05/29 18:23:26;;;;;;;;;;;21.70;52.40;;;;;;10327240;28;1969;-68
2023/05/29 18:28:22;;;;;;;;;;;21.70;52.30;;;;;;10327068;28;892;-68
2023/05/29 18:33:17;;;;;;;;;;;21.70;52.30;;;;;;10325904;28;942;-68
2023/05/29 18:38:12;;;;;;;;;;;21.70;52.40;;;;;;10326607;28;1374;-68
2023/05/29 18:43:09;;;;;;;;;;;21.60;52.50;;;;;;10327119;28;1972;-68
2023/05/29 18:48:05;;;;;;;;;;;21.60;52.50;;;;;;10325866;28;957;-68
2023/05/29 18:53:00;;;;;;;;;;;21.60;52.60;;;;;;10325704;28;850;-68
2023/05/29 18:57:55;;;;;;;;;;;21.60;52.60;;;;;;10325621;28;814;-68
2023/05/29 19:02:51;;;;;;;;;;;21.60;52.70;;;;;;10326021;28;1897;-68
2023/05/29 19:07:47;;;;;;;;;;;21.50;52.60;;;;;;10325517;28;802;-68
2023/05/29 19:12:42;;;;;;;;;;;21.60;52.60;;;;;;10325395;28;768;-68
2023/05/29 19:17:37;;;;;;;;;;;21.60;52.70;;;;;;10330765;28;851;-68
2023/05/29 19:22:33;;;;;;;;;;;21.60;52.70;;;;;;10333588;28;1959;-68
2023/05/29 19:27:28;;;;;;;;;;;21.50;52.60;;;;;;10333544;28;760;-68
2023/05/29 19:32:24;;;;;;;;;;;21.50;52.70;;;;;;10333245;28;939;-68
2023/05/29 19:37:20;;;;;;;;;;;21.50;52.80;;;;;;10333409;28;1159;-68
2023/05/29 19:42:18;;;;;;;;;;;21.50;52.70;;;;;;10332834;28;1967;-68
2023/05/29 19:47:13;;;;;;;;;;;21.40;52.70;;;;;;10333288;28;845;-68
2023/05/29 19:52:09;;;;;;;;;;;21.40;52.70;;;;;;10333079;28;790;-68
2023/05/29 19:57:05;;;;;;;;;;;21.40;52.70;;;;;;10333045;28;852;-68
2023/05/29 20:02:00;;;;;;;;;;;21.40;52.80;;;;;;10331967;28;1906;-68
2023/05/29 20:06:56;;;;;;;;;;;21.40;52.80;;;;;;10332849;28;854;-67
2023/05/29 20:11:51;;;;;;;;;;;21.40;52.80;;;;;;10332627;28;871;-68
2023/05/29 20:16:47;;;;;;;;;;;21.40;52.90;;;;;;10332095;28;854;-68
2023/05/29 20:21:42;;;;;;;;;;;21.30;52.80;;;;;;10331291;28;1906;-68
2023/05/29 20:26:37;;;;;;;;;;;21.30;52.80;;;;;;10330910;28;853;-70
2023/05/29 20:31:33;;;;;;;;;;;21.30;52.90;;;;;;10331303;28;746;-69
2023/05/29 20:36:29;;;;;;;;;;;21.30;52.80;;;;;;10330619;28;1500;-70
2023/05/29 20:41:25;;;;;;;;;;;21.30;52.80;;;;;;10330531;28;1983;-70
2023/05/29 20:46:22;;;;;;;;;;;21.30;52.80;;;;;;10330439;28;875;-70
2023/05/29 20:51:18;;;;;;;;;;;21.30;52.90;;;;;;10330338;28;841;-70
2023/05/29 20:56:13;;;;;;;;;;;21.30;52.90;;;;;;10330735;28;891;-70
2023/05/29 21:01:10;;;;;;;;;;;21.20;52.90;;;;;;10330296;28;1969;-70
2023/05/29 21:06:06;;;;;;;;;;;21.20;52.80;;;;;;10330335;28;951;-70
2023/05/29 21:11:02;;;;;;;;;;;21.20;52.80;;;;;;10329520;28;962;-70
2023/05/29 21:15:57;;;;;;;;;;;21.20;52.80;;;;;;10329344;28;829;-70
2023/05/29 21:20:52;;;;;;;;;;;21.20;52.90;;;;;;10329224;28;1961;-70
2023/05/29 21:25:48;;;;;;;;;;;21.20;53.50;;;;;;10328365;28;929;-70
2023/05/29 21:30:44;;;;;;;;;;;21.20;52.80;;;;;;10329301;28;806;-70
2023/05/29 21:35:42;;;;;;;;;;;21.20;52.80;;;;;;10329092;28;1289;-70
2023/05/29 21:40:37;;;;;;;;;;;21.20;52.80;;;;;;10328322;28;1973;-70
2023/05/29 21:45:32;;;;;;;;;;;21.20;52.90;;;;;;10311547;28;781;-70
2023/05/29 21:50:28;;;;;;;;;;;21.20;52.90;;;;;;10327922;28;911;-70
2023/05/29 21:55:23;;;;;;;;;;;21.20;53.00;;;;;;10327692;28;913;-70
2023/05/29 22:00:24;;;;;;;;;;;21.20;52.90;;;;;;10328072;28;1906;-70
2023/05/29 22:05:19;;;;;;;;;;;21.20;52.90;;;;;;10327995;28;798;-70
2023/05/29 22:10:16;;;;;;;;;;;21.20;52.90;;;;;;10327140;28;781;-70
2023/05/29 22:15:12;;;;;;;;;;;21.10;52.90;;;;;;10326922;28;898;-70
2023/05/29 22:20:08;;;;;;;;;;;21.10;52.80;;;;;;10327261;28;1902;-70
2023/05/29 22:25:04;;;;;;;;;;;21.10;52.80;;;;;;10326962;28;894;-69
2023/05/29 22:29:59;;;;;;;;;;;21.10;52.80;;;;;;10327107;28;852;-70
2023/05/29 22:34:55;;;;;;;;;;;21.10;52.80;;;;;;10326519;28;1229;-69
2023/05/29 22:39:50;;;;;;;;;;;21.10;52.80;;;;;;10326637;28;1969;-70
2023/05/29 22:44:46;;;;;;;;;;;21.10;52.70;;;;;;10326583;28;798;-70
2023/05/29 22:49:41;;;;;;;;;;;21.10;52.80;;;;;;10325526;28;838;-70
2023/05/29 22:54:38;;;;;;;;;;;21.10;52.80;;;;;;10325793;28;867;-70
2023/05/29 22:59:33;;;;;;;;;;;21.10;52.80;;;;;;10325584;28;1941;-69
2023/05/29 23:04:29;;;;;;;;;;;21.10;52.70;;;;;;10326008;28;891;-69
2023/05/29 23:09:25;;;;;;;;;;;21.10;52.80;;;;;;10325511;28;830;-70
2023/05/29 23:14:20;;;;;;;;;;;21.10;52.70;;;;;;10326376;28;872;-69
2023/05/29 23:19:15;;;;;;;;;;;21.10;52.70;;;;;;10324704;28;1250;-70
2023/05/29 23:24:11;;;;;;;;;;;21.00;52.60;;;;;;10325154;28;1906;-70
2023/05/29 23:29:07;;;;;;;;;;;21.10;52.60;;;;;;10325026;28;965;-70
2023/05/29 23:34:02;;;;;;;;;;;21.00;52.60;;;;;;10324742;28;1634;-70
2023/05/29 23:38:58;;;;;;;;;;;21.00;52.50;;;;;;10324967;28;821;-70
2023/05/29 23:43:53;;;;;;;;;;;21.00;52.50;;;;;;10324716;28;1965;-69
2023/05/29 23:48:48;;;;;;;;;;;21.00;52.50;;;;;;10324706;28;829;-69
2023/05/29 23:53:44;;;;;;;;;;;21.00;52.50;;;;;;10323994;28;897;-70
2023/05/29 23:58:39;;;;;;;;;;;21.00;52.60;;;;;;10324467;28;1074;-69
